createdAt,value
2022-07-26T00:02:27.002Z,5.73
2022-07-26T00:04:54.923Z,10.33
2022-07-26T00:07:22.726Z,7.37
2022-07-26T00:09:50.476Z,14.03
2022-07-26T00:12:18.273Z,10.17
2022-07-26T00:14:46.046Z,7.27
2022-07-26T00:17:13.844Z,9.70
2022-07-26T00:19:43.074Z,8.87
2022-07-26T00:22:28.410Z,9.60
2022-07-26T00:24:56.268Z,10.33
2022-07-26T00:27:24.078Z,9.53
2022-07-26T00:29:53.504Z,11.87
2022-07-26T00:32:21.315Z,6.47
2022-07-26T00:34:51.572Z,8.33
2022-07-26T00:37:20.726Z,9.40
2022-07-26T00:39:48.781Z,13.30
2022-07-26T00:42:16.731Z,11.60
2022-07-26T00:44:46.798Z,10.97
2022-07-26T00:47:15.398Z,8.00
2022-07-26T00:49:44.030Z,10.33
2022-07-26T00:52:13.447Z,13.37
2022-07-26T00:54:45.627Z,7.53
2022-07-26T00:57:15.005Z,8.53
2022-07-26T00:59:43.452Z,10.60
2022-07-26T01:02:12.325Z,13.30
2022-07-26T01:04:40.633Z,8.77
2022-07-26T01:07:14.486Z,12.57
2022-07-26T01:09:45.896Z,14.43
2022-07-26T01:12:13.792Z,9.77
2022-07-26T01:14:43.782Z,9.10
2022-07-26T01:17:11.946Z,7.60
2022-07-26T01:19:39.911Z,10.23
2022-07-26T01:22:14.207Z,17.00
2022-07-26T01:24:42.572Z,10.90
2022-07-26T01:27:10.361Z,10.57
2022-07-26T01:29:38.169Z,12.30
2022-07-26T01:32:06.756Z,10.03
2022-07-26T01:34:34.594Z,10.47
2022-07-26T01:37:03.705Z,9.50
2022-07-26T01:39:32.916Z,5.50
2022-07-26T01:42:00.731Z,9.50
2022-07-26T01:44:28.620Z,7.57
2022-07-26T01:46:56.461Z,8.80
2022-07-26T01:49:24.266Z,12.27
2022-07-26T01:51:52.091Z,6.77
2022-07-26T01:54:22.444Z,10.87
2022-07-26T01:56:53.839Z,9.50
2022-07-26T01:59:21.649Z,6.67
2022-07-26T02:01:49.579Z,9.53
2022-07-26T02:04:31.650Z,7.83
2022-07-26T02:06:59.626Z,10.87
2022-07-26T02:09:29.920Z,12.30
2022-07-26T02:12:03.749Z,7.87
2022-07-26T02:14:31.492Z,10.57
2022-07-26T02:17:00.734Z,9.07
2022-07-26T02:19:29.197Z,13.07
2022-07-26T02:21:57.130Z,15.10
2022-07-26T02:24:24.949Z,10.73
2022-07-26T02:26:52.775Z,8.50
2022-07-26T02:29:21.979Z,5.73
2022-07-26T02:31:49.895Z,8.90
2022-07-26T02:34:17.804Z,10.10
2022-07-26T02:36:46.646Z,9.13
2022-07-26T02:39:14.987Z,12.40
2022-07-26T02:41:43.212Z,7.60
2022-07-26T02:44:11.885Z,6.60
2022-07-26T02:46:41.330Z,7.67
2022-07-26T02:49:09.248Z,12.80
2022-07-26T02:51:37.151Z,12.33
2022-07-26T02:54:05.576Z,11.17
2022-07-26T02:56:33.705Z,9.27
2022-07-26T02:59:01.494Z,8.57
2022-07-26T03:01:29.371Z,11.00
2022-07-26T03:03:58.659Z,7.53
2022-07-26T03:06:26.461Z,9.20
2022-07-26T03:08:54.711Z,11.43
2022-07-26T03:11:22.471Z,9.67
2022-07-26T03:13:50.238Z,10.57
2022-07-26T03:16:22.618Z,6.73
2022-07-26T03:18:52.630Z,9.07
2022-07-26T03:21:21.782Z,10.50
2022-07-26T03:23:49.592Z,7.97
2022-07-26T03:26:17.446Z,6.97
2022-07-26T03:28:45.543Z,9.57
2022-07-26T03:31:14.064Z,9.47
2022-07-26T03:33:42.212Z,11.80
2022-07-26T03:36:11.673Z,6.73
2022-07-26T03:38:45.010Z,8.97
2022-07-26T03:41:13.515Z,10.57
2022-07-26T03:43:41.616Z,9.50
2022-07-26T03:46:09.539Z,12.63
2022-07-26T03:48:37.454Z,9.57
2022-07-26T03:51:05.585Z,10.43
2022-07-26T03:53:34.563Z,9.37
2022-07-26T03:56:21.997Z,13.73
2022-07-26T03:58:49.794Z,11.90
2022-07-26T04:01:17.701Z,10.10
2022-07-26T04:03:47.749Z,11.17
2022-07-26T04:06:16.294Z,11.90
2022-07-26T04:08:44.161Z,12.47
2022-07-26T04:11:13.578Z,8.43
2022-07-26T04:13:41.577Z,12.20
2022-07-26T04:16:09.755Z,9.27
2022-07-26T04:18:37.973Z,10.27
2022-07-26T04:21:05.965Z,13.13
2022-07-26T04:23:33.993Z,12.63
2022-07-26T04:26:01.930Z,13.77
2022-07-26T04:28:31.181Z,18.07
2022-07-26T04:31:00.118Z,10.47
2022-07-26T04:33:28.498Z,8.23
2022-07-26T04:35:56.457Z,6.23
2022-07-26T04:38:24.552Z,8.07
2022-07-26T04:40:53.040Z,10.93
2022-07-26T04:43:20.916Z,10.57
2022-07-26T04:45:50.201Z,11.63
2022-07-26T04:48:18.634Z,11.47
2022-07-26T04:50:46.694Z,6.53
2022-07-26T04:53:14.820Z,14.03
2022-07-26T04:55:43.060Z,11.03
2022-07-26T04:58:11.133Z,10.50
2022-07-26T05:01:02.832Z,7.70
2022-07-26T05:03:28.702Z,9.77
2022-07-26T05:05:56.532Z,11.20
2022-07-26T05:08:24.342Z,8.97
2022-07-26T05:10:55.665Z,13.13
2022-07-26T05:13:29.927Z,8.43
2022-07-26T05:15:58.801Z,12.33
2022-07-26T05:18:29.903Z,9.30
2022-07-26T05:20:59.573Z,13.27
2022-07-26T05:23:27.430Z,4.83
2022-07-26T05:25:55.466Z,10.77
2022-07-26T05:28:23.296Z,9.83
2022-07-26T05:30:51.456Z,11.13
2022-07-26T05:33:19.296Z,13.70
2022-07-26T05:35:48.453Z,9.30
2022-07-26T05:38:16.188Z,9.13
2022-07-26T05:40:47.286Z,10.77
2022-07-26T05:43:17.940Z,12.07
2022-07-26T05:45:45.840Z,12.40
2022-07-26T05:48:13.653Z,10.20
2022-07-26T05:50:41.479Z,9.77
2022-07-26T05:53:10.624Z,7.63
2022-07-26T05:55:38.446Z,9.33
2022-07-26T05:58:06.249Z,9.17
2022-07-26T06:00:34.536Z,9.70
2022-07-26T06:03:21.928Z,13.40
2022-07-26T06:05:50.063Z,6.93
2022-07-26T06:08:19.633Z,7.77
2022-07-26T06:10:47.823Z,14.30
2022-07-26T06:13:16.395Z,8.60
2022-07-26T06:15:44.873Z,8.70
2022-07-26T06:18:13.291Z,5.20
2022-07-26T06:20:41.440Z,7.97
2022-07-26T06:23:09.291Z,8.63
2022-07-26T06:25:38.537Z,5.57
2022-07-26T06:28:08.282Z,6.77
2022-07-26T06:30:36.836Z,3.40
2022-07-26T06:33:05.091Z,6.57
2022-07-26T06:35:35.435Z,5.37
2022-07-26T06:38:03.636Z,7.40
2022-07-26T06:40:31.707Z,4.53
2022-07-26T06:43:04.482Z,6.40
2022-07-26T06:45:33.144Z,4.57
2022-07-26T06:48:00.995Z,4.77
2022-07-26T06:50:28.929Z,2.60
2022-07-26T06:52:56.752Z,3.50
2022-07-26T06:55:24.823Z,3.50
2022-07-26T06:57:52.604Z,3.27
2022-07-26T07:00:22.138Z,3.60
2022-07-26T07:02:49.973Z,5.73
2022-07-26T07:05:17.986Z,3.37
2022-07-26T07:07:45.901Z,6.97
2022-07-26T07:10:14.371Z,2.57
2022-07-26T07:12:44.731Z,3.27
2022-07-26T07:15:13.045Z,5.50
2022-07-26T07:17:42.172Z,8.87
2022-07-26T07:20:10.890Z,5.67
2022-07-26T07:22:38.656Z,4.53
2022-07-26T07:25:07.302Z,3.00
2022-07-26T07:27:35.188Z,2.37
2022-07-26T07:30:03.213Z,3.40
2022-07-26T07:32:32.331Z,2.30
2022-07-26T07:35:01.837Z,5.03
2022-07-26T07:37:52.182Z,3.17
2022-07-26T07:40:17.742Z,2.40
2022-07-26T07:42:45.551Z,3.80
2022-07-26T07:45:13.317Z,2.87
2022-07-26T07:47:41.147Z,2.53
2022-07-26T07:50:10.752Z,3.73
2022-07-26T07:52:38.592Z,4.47
2022-07-26T07:55:36.403Z,2.17
2022-07-26T07:57:57.514Z,2.63
2022-07-26T08:00:27.485Z,4.43
2022-07-26T08:02:55.532Z,4.20
2022-07-26T08:05:24.878Z,2.47
2022-07-26T08:07:52.784Z,2.03
2022-07-26T08:10:20.742Z,1.43
2022-07-26T08:12:51.245Z,5.07
2022-07-26T08:15:19.819Z,1.40
2022-07-26T08:17:53.822Z,1.67
2022-07-26T08:20:25.115Z,3.43
2022-07-26T08:22:53.206Z,1.43
2022-07-26T08:25:21.256Z,2.97
2022-07-26T08:28:03.224Z,2.20
2022-07-26T08:30:31.916Z,2.27
2022-07-26T08:33:00.115Z,1.97
2022-07-26T08:35:30.112Z,2.67
2022-07-26T08:37:58.406Z,2.33
2022-07-26T08:40:26.305Z,4.13
2022-07-26T08:42:56.815Z,2.47
2022-07-26T08:45:25.501Z,1.13
2022-07-26T08:48:16.254Z,3.23
2022-07-26T08:50:43.207Z,1.17
2022-07-26T08:53:13.033Z,1.47
2022-07-26T08:58:29.415Z,4.30
2022-07-26T09:01:08.498Z,5.20
2022-07-26T09:03:37.910Z,1.53
2022-07-26T09:06:15.984Z,6.23
2022-07-26T09:08:45.172Z,1.60
2022-07-26T09:11:28.465Z,4.57
2022-07-26T09:13:58.173Z,1.50
2022-07-26T09:16:26.169Z,3.30
2022-07-26T09:18:54.170Z,4.67
2022-07-26T09:21:31.164Z,3.57
2022-07-26T09:23:59.308Z,2.13
2022-07-26T09:26:28.084Z,2.03
2022-07-26T09:29:07.319Z,4.80
2022-07-26T09:31:36.284Z,0.97
2022-07-26T09:34:05.590Z,1.50
2022-07-26T09:36:34.994Z,1.53
2022-07-26T09:39:05.061Z,2.17
2022-07-26T09:41:35.989Z,4.40
2022-07-26T09:44:06.049Z,0.93
2022-07-26T09:46:35.668Z,0.60
2022-07-26T09:49:18.685Z,1.53
2022-07-26T09:51:49.667Z,2.77
2022-07-26T09:54:20.823Z,1.90
2022-07-26T09:56:50.921Z,0.93
2022-07-26T09:59:20.465Z,3.67
2022-07-26T10:01:48.949Z,3.37
2022-07-26T10:04:17.647Z,1.73
2022-07-26T10:06:47.545Z,1.23
2022-07-26T10:09:16.485Z,2.70
2022-07-26T10:11:48.772Z,1.50
2022-07-26T10:14:35.973Z,4.53
2022-07-26T10:17:47.113Z,3.30
2022-07-26T10:20:43.823Z,1.60
2022-07-26T10:23:44.751Z,2.17
2022-07-26T10:26:35.084Z,1.60
2022-07-26T10:29:26.715Z,3.87
2022-07-26T10:32:17.518Z,1.37
2022-07-26T10:34:46.376Z,1.83
2022-07-26T10:37:24.089Z,0.80
2022-07-26T10:40:22.579Z,2.40
2022-07-26T10:42:50.700Z,2.10
2022-07-26T10:45:22.345Z,1.90
2022-07-26T10:48:13.287Z,6.80
2022-07-26T10:50:41.967Z,3.37
2022-07-26T10:53:11.847Z,1.97
2022-07-26T10:55:52.116Z,3.77
2022-07-26T10:58:20.686Z,4.07
2022-07-26T11:01:00.551Z,3.57
2022-07-26T11:03:38.824Z,4.10
2022-07-26T11:06:12.029Z,2.77
2022-07-26T11:08:42.421Z,4.53
2022-07-26T11:11:15.311Z,4.33
2022-07-26T11:13:43.082Z,3.67
2022-07-26T11:16:11.306Z,4.00
2022-07-26T11:18:40.093Z,3.23
2022-07-26T11:21:14.139Z,2.20
2022-07-26T11:23:44.153Z,2.30
2022-07-26T11:26:16.143Z,1.83
2022-07-26T11:29:00.334Z,3.10
2022-07-26T11:31:51.155Z,1.33
2022-07-26T11:34:29.872Z,3.40
2022-07-26T11:37:00.028Z,0.90
2022-07-26T11:39:30.000Z,1.80
2022-07-26T11:42:00.970Z,2.73
2022-07-26T11:44:29.445Z,2.57
2022-07-26T11:46:57.953Z,2.30
2022-07-26T11:49:52.169Z,3.37
2022-07-26T11:52:16.224Z,1.37
2022-07-26T11:54:54.422Z,5.27
2022-07-26T11:57:29.780Z,3.07
2022-07-26T11:59:57.852Z,2.03
2022-07-26T12:02:25.673Z,5.00
2022-07-26T12:05:14.085Z,4.17
2022-07-26T12:07:54.874Z,4.87
2022-07-26T12:10:22.934Z,4.60
2022-07-26T12:13:07.265Z,6.80
2022-07-26T12:15:45.788Z,1.67
2022-07-26T12:18:22.997Z,3.07
2022-07-26T12:21:03.905Z,5.10
2022-07-26T12:23:42.343Z,1.97
2022-07-26T12:26:20.873Z,3.73
2022-07-26T12:28:50.031Z,2.33
2022-07-26T12:31:25.928Z,3.17
2022-07-26T12:33:54.042Z,2.87
2022-07-26T12:36:27.945Z,2.13
2022-07-26T12:38:57.468Z,3.50
2022-07-26T12:41:36.174Z,2.13
2022-07-26T12:44:06.316Z,3.60
2022-07-26T12:46:35.320Z,3.80
2022-07-26T12:49:03.645Z,3.63
2022-07-26T12:51:31.722Z,7.90
2022-07-26T12:53:59.514Z,3.00
2022-07-26T12:56:27.384Z,4.60
2022-07-26T12:59:00.974Z,3.40
2022-07-26T13:01:31.215Z,3.27
2022-07-26T13:03:59.474Z,4.93
2022-07-26T13:06:27.310Z,5.13
2022-07-26T13:08:56.434Z,4.27
2022-07-26T13:11:24.962Z,5.37
2022-07-26T13:13:52.817Z,2.33
2022-07-26T13:16:20.705Z,3.90
2022-07-26T13:18:49.895Z,4.07
2022-07-26T13:21:17.742Z,6.23
2022-07-26T13:23:45.549Z,1.57
2022-07-26T13:26:14.021Z,3.60
2022-07-26T13:28:42.441Z,6.30
2022-07-26T13:31:10.806Z,3.03
2022-07-26T13:33:39.475Z,2.07
2022-07-26T13:36:08.875Z,4.63
2022-07-26T13:38:36.722Z,4.17
2022-07-26T13:41:05.331Z,5.90
2022-07-26T13:43:33.312Z,2.80
2022-07-26T13:46:01.114Z,4.37
2022-07-26T13:48:29.283Z,3.73
2022-07-26T13:50:58.003Z,3.03
2022-07-26T13:53:29.958Z,6.47
2022-07-26T13:55:57.751Z,2.97
2022-07-26T13:58:25.525Z,2.93
2022-07-26T14:00:53.704Z,3.23
2022-07-26T14:03:21.783Z,2.93
2022-07-26T14:05:49.630Z,5.20
2022-07-26T14:08:17.636Z,4.23
2022-07-26T14:10:47.159Z,2.63
2022-07-26T14:13:15.091Z,5.77
2022-07-26T14:15:42.842Z,3.23
2022-07-26T14:18:10.656Z,5.90
2022-07-26T14:20:39.230Z,3.03
2022-07-26T14:23:07.001Z,6.97
2022-07-26T14:25:34.999Z,2.47
2022-07-26T14:28:04.449Z,3.83
2022-07-26T14:30:32.290Z,5.13
2022-07-26T14:33:01.118Z,3.67
2022-07-26T14:35:29.193Z,3.53
2022-07-26T14:37:57.015Z,2.97
2022-07-26T14:40:24.840Z,3.73
2022-07-26T14:42:52.767Z,2.50
2022-07-26T14:45:21.948Z,5.63
2022-07-26T14:47:49.723Z,1.80
2022-07-26T14:50:17.561Z,2.57
2022-07-26T14:52:47.607Z,3.40
2022-07-26T14:55:23.000Z,3.90
2022-07-26T14:57:52.797Z,4.43
2022-07-26T15:00:21.954Z,3.10
2022-07-26T15:02:50.408Z,6.30
2022-07-26T15:05:19.031Z,1.60
2022-07-26T15:07:47.979Z,2.67
2022-07-26T15:10:16.683Z,4.77
2022-07-26T15:12:45.142Z,5.27
2022-07-26T15:15:13.010Z,6.97
2022-07-26T15:17:42.210Z,3.10
2022-07-26T15:20:10.371Z,7.40
2022-07-26T15:22:38.227Z,4.80
2022-07-26T15:25:07.217Z,7.50
2022-07-26T15:27:35.112Z,7.80
2022-07-26T15:30:06.126Z,5.83
2022-07-26T15:32:37.191Z,4.27
2022-07-26T15:35:08.285Z,5.57
2022-07-26T15:37:43.692Z,5.03
2022-07-26T15:40:12.843Z,4.20
2022-07-26T15:42:43.446Z,4.77
2022-07-26T15:45:13.018Z,4.27
2022-07-26T15:47:54.737Z,5.63
2022-07-26T15:50:26.030Z,6.87
2022-07-26T15:52:53.860Z,8.30
2022-07-26T15:55:21.872Z,6.83
2022-07-26T15:57:49.671Z,5.23
2022-07-26T16:00:18.349Z,5.87
2022-07-26T16:02:46.193Z,2.97
2022-07-26T16:05:14.164Z,6.03
2022-07-26T16:07:44.724Z,8.57
2022-07-26T16:10:13.916Z,4.07
2022-07-26T16:12:42.664Z,5.57
2022-07-26T16:15:11.719Z,6.07
2022-07-26T16:17:39.590Z,9.37
2022-07-26T16:20:08.903Z,3.13
2022-07-26T16:22:40.826Z,7.27
2022-07-26T16:25:13.111Z,5.83
2022-07-26T16:27:42.069Z,5.80
2022-07-26T16:30:11.194Z,6.27
2022-07-26T16:32:39.024Z,11.97
2022-07-26T16:35:07.770Z,5.17
2022-07-26T16:37:35.592Z,4.90
2022-07-26T16:40:06.908Z,4.53
2022-07-26T16:42:36.464Z,6.70
2022-07-26T16:45:04.909Z,8.57
2022-07-26T16:47:32.639Z,5.13
2022-07-26T16:50:00.391Z,4.70
2022-07-26T16:52:28.629Z,7.17
2022-07-26T16:54:56.484Z,6.83
2022-07-26T16:57:24.483Z,5.63
2022-07-26T16:59:53.646Z,6.93
2022-07-26T17:02:21.573Z,3.53
2022-07-26T17:04:49.514Z,4.33
2022-07-26T17:07:26.087Z,4.90
2022-07-26T17:09:55.034Z,6.10
2022-07-26T17:12:22.987Z,5.33
2022-07-26T17:14:51.187Z,3.70
2022-07-26T17:17:20.371Z,7.03
2022-07-26T17:19:48.313Z,8.70
2022-07-26T17:22:16.904Z,7.37
2022-07-26T17:24:45.115Z,3.90
2022-07-26T17:27:12.993Z,11.57
2022-07-26T17:29:40.747Z,3.93
2022-07-26T17:32:09.691Z,3.63
2022-07-26T17:34:39.409Z,5.50
2022-07-26T17:37:09.979Z,6.20
2022-07-26T17:39:52.052Z,3.63
2022-07-26T17:42:20.926Z,3.77
2022-07-26T17:44:48.749Z,4.77
2022-07-26T17:47:28.574Z,5.40
2022-07-26T17:50:13.977Z,4.97
2022-07-26T17:52:47.820Z,9.40
2022-07-26T17:55:15.862Z,5.27
2022-07-26T17:57:43.659Z,2.53
2022-07-26T18:00:12.727Z,5.40
2022-07-26T18:02:40.731Z,4.33
2022-07-26T18:05:11.068Z,5.03
2022-07-26T18:07:39.231Z,3.60
2022-07-26T18:10:08.033Z,2.70
2022-07-26T18:12:36.108Z,3.40
2022-07-26T18:15:03.888Z,4.37
2022-07-26T18:17:31.625Z,3.13
2022-07-26T18:19:59.998Z,5.33
2022-07-26T18:22:29.165Z,5.17
2022-07-26T18:24:56.930Z,3.97
2022-07-26T18:27:28.032Z,7.20
2022-07-26T18:29:55.913Z,2.87
2022-07-26T18:32:24.808Z,4.10
2022-07-26T18:34:53.197Z,7.00
2022-07-26T18:37:21.849Z,2.90
2022-07-26T18:39:57.083Z,4.73
2022-07-26T18:42:25.592Z,8.87
2022-07-26T18:44:53.405Z,6.53
2022-07-26T18:47:21.281Z,1.87
2022-07-26T18:49:49.267Z,7.73
2022-07-26T18:52:18.067Z,5.20
2022-07-26T18:55:06.538Z,2.97
2022-07-26T18:57:34.568Z,4.67
2022-07-26T19:00:02.423Z,6.10
2022-07-26T19:02:30.187Z,6.00
2022-07-26T19:04:57.954Z,5.33
2022-07-26T19:07:25.891Z,8.27
2022-07-26T19:09:58.172Z,6.17
2022-07-26T19:12:28.234Z,4.97
2022-07-26T19:14:56.489Z,3.10
2022-07-26T19:17:24.403Z,5.03
2022-07-26T19:19:52.278Z,8.00
2022-07-26T19:22:20.679Z,6.47
2022-07-26T19:24:48.633Z,5.37
2022-07-26T19:27:16.463Z,8.87
2022-07-26T19:29:45.803Z,7.23
2022-07-26T19:32:13.645Z,6.67
2022-07-26T19:34:42.085Z,5.77
2022-07-26T19:37:09.964Z,4.83
2022-07-26T19:39:37.768Z,6.43
2022-07-26T19:42:06.071Z,4.83
2022-07-26T19:44:33.916Z,5.60
2022-07-26T19:47:03.124Z,4.73
2022-07-26T19:49:30.892Z,3.97
2022-07-26T19:51:59.726Z,2.80
2022-07-26T19:54:28.337Z,4.40
2022-07-26T19:56:56.126Z,4.20
2022-07-26T19:59:24.718Z,11.60
2022-07-26T20:01:56.555Z,5.63
2022-07-26T20:04:27.842Z,5.30
2022-07-26T20:06:56.416Z,3.47
2022-07-26T20:09:24.393Z,3.70
2022-07-26T20:11:52.207Z,5.20
2022-07-26T20:14:21.123Z,6.43
2022-07-26T20:16:54.129Z,4.20
2022-07-26T20:19:24.532Z,4.77
2022-07-26T20:21:53.690Z,5.23
2022-07-26T20:24:21.734Z,3.33
2022-07-26T20:26:49.521Z,4.83
2022-07-26T20:29:17.391Z,6.13
2022-07-26T20:31:45.820Z,4.33
2022-07-26T20:34:13.717Z,3.47
2022-07-26T20:36:41.507Z,4.77
2022-07-26T20:39:10.976Z,6.07
2022-07-26T20:41:39.181Z,6.50
2022-07-26T20:44:07.052Z,4.80
2022-07-26T20:46:39.713Z,2.77
2022-07-26T20:49:07.955Z,2.90
2022-07-26T20:51:35.875Z,2.30
2022-07-26T20:54:03.975Z,4.17
2022-07-26T20:56:33.879Z,3.43
2022-07-26T20:59:02.313Z,5.67
2022-07-26T21:01:30.236Z,4.43
2022-07-26T21:03:58.222Z,2.37
2022-07-26T21:06:29.052Z,2.90
2022-07-26T21:08:57.795Z,3.67
2022-07-26T21:11:25.735Z,5.17
2022-07-26T21:13:54.937Z,1.53
2022-07-26T21:16:23.027Z,1.73
2022-07-26T21:18:52.556Z,3.33
2022-07-26T21:21:21.213Z,2.87
2022-07-26T21:23:49.780Z,3.17
2022-07-26T21:26:17.704Z,4.63
2022-07-26T21:28:45.519Z,5.13
2022-07-26T21:31:14.688Z,4.17
2022-07-26T21:33:44.226Z,4.20
2022-07-26T21:36:12.065Z,3.03
2022-07-26T21:38:39.858Z,2.17
2022-07-26T21:41:07.670Z,1.97
2022-07-26T21:43:35.645Z,4.63
2022-07-26T21:46:06.697Z,2.20
2022-07-26T21:48:38.235Z,3.50
2022-07-26T21:51:06.071Z,3.30
2022-07-26T21:53:33.938Z,4.27
2022-07-26T21:56:01.740Z,4.20
2022-07-26T21:58:33.284Z,4.93
2022-07-26T22:01:07.382Z,4.83
2022-07-26T22:03:37.488Z,3.33
2022-07-26T22:06:07.741Z,2.67
2022-07-26T22:08:35.675Z,2.67
2022-07-26T22:11:03.896Z,3.23
2022-07-26T22:13:31.860Z,4.00
2022-07-26T22:15:59.747Z,7.20
2022-07-26T22:18:27.719Z,3.23
2022-07-26T22:20:56.031Z,3.77
2022-07-26T22:23:30.018Z,3.63
2022-07-26T22:25:58.177Z,3.63
2022-07-26T22:28:26.276Z,4.67
2022-07-26T22:30:54.580Z,3.10
2022-07-26T22:33:26.197Z,2.73
2022-07-26T22:35:54.490Z,3.67
2022-07-26T22:38:22.339Z,4.80
2022-07-26T22:40:51.499Z,2.57
2022-07-26T22:43:19.302Z,5.33
2022-07-26T22:45:47.202Z,1.83
2022-07-26T22:48:15.071Z,4.63
2022-07-26T22:50:42.950Z,2.27
2022-07-26T22:53:10.801Z,2.70
2022-07-26T22:55:38.640Z,3.47
2022-07-26T22:58:07.798Z,3.73
2022-07-26T23:00:35.816Z,3.77
2022-07-26T23:03:03.764Z,5.43
2022-07-26T23:05:45.423Z,2.73
2022-07-26T23:08:45.188Z,4.80
2022-07-26T23:11:02.510Z,4.77
2022-07-26T23:13:31.829Z,5.00
2022-07-26T23:16:01.063Z,3.93
2022-07-26T23:18:29.785Z,4.43
2022-07-26T23:20:57.850Z,3.53
2022-07-26T23:23:29.242Z,3.53
2022-07-26T23:25:57.949Z,2.73
2022-07-26T23:28:36.530Z,3.17
2022-07-26T23:31:08.891Z,2.70
2022-07-26T23:33:52.408Z,6.40
2022-07-26T23:36:26.202Z,4.13
2022-07-26T23:38:54.847Z,3.87
2022-07-26T23:41:23.355Z,5.60
2022-07-26T23:43:51.524Z,4.30
2022-07-26T23:46:21.208Z,6.00
2022-07-26T23:48:49.189Z,5.13
2022-07-26T23:51:17.132Z,1.50
2022-07-26T23:53:44.938Z,3.20
2022-07-26T23:56:12.884Z,2.37
2022-07-26T23:58:40.699Z,3.77
